LIMC Airport Information

Runway Information
Runway 17L Length 12861 ft width 197 ft
Elevation 745 ft Threshold 3094 ft Heading 170
Runway 35R Length 12861 ft Width 197 ft
Elevation 691 ft Threshold 0 ft Heading 350
Runway 17R Length 12861 ft width 197 ft
Elevation 764 ft Threshold 0 ft Heading 170
Runway 35L Length 12861 ft Width 197 ft
Elevation 696 ft Threshold 1329 ft Heading 350
Airport Frequencies
Type APP Name MILANO APP Frequency 132.7 MHZ
Type ATIS Name ATIS Frequency 120.025 MHZ
Type CLD Name CLNC DEL Frequency 120.9 MHZ
Type DEP Name MILANO DEP Frequency 126.75 MHZ
Type GND Name GND Frequency 121.9 MHZ
Type TWR Name TWR Frequency 119 MHZ
Airport Navaids
Type VOR-DME Name Malpensa Frequency 111200 KHZ
Type NDB Name Malpensa Frequency 364 KHZ
Airport Weather Information & NOTAM
ADDS - METARS form results

(1508 UTC 31 July 2021)
Data provider http://aviationweather.gov/metar/data/
 
METAR text: LIMC 311450Z 27005KT 240V320 9999 SCT030 28/19 Q1008 NOSIG
Conditions at: LIMC (MILANO/MALPENSA , IT) observed 1450 UTC 31 July 2021
Temperature: 28.0°C (82°F)
Dewpoint: 19.0°C (66°F) [RH = 58%]
Pressure (altimeter): 29.76 inches Hg (1008.0 mb)
Winds: from the W (270 degrees) at 6 MPH (5 knots; 2.6 m/s)
Visibility: 6 or more miles (10+ km)
Ceiling: at least 12,000 feet AGL
Clouds: scattered clouds at 3000 feet AGL
Weather: no significant weather observed at this time

METAR text: LIMC 311420Z 21010KT 9999 SCT030TCU 29/19 Q1008 NOSIG
Conditions at: LIMC (MILANO/MALPENSA , IT) observed 1420 UTC 31 July 2021
Temperature: 29.0°C (84°F)
Dewpoint: 19.0°C (66°F) [RH = 55%]
Pressure (altimeter): 29.76 inches Hg (1008.0 mb)
Winds: from the SSW (210 degrees) at 12 MPH (10 knots; 5.1 m/s)
Visibility: 6 or more miles (10+ km)
Ceiling: at least 12,000 feet AGL
Clouds: scattered clouds at 3000 feet AGL
Weather: no significant weather observed at this time

Forecast for: LIMC (MILANO/MALPENSA , IT)
Text: TAF LIMC 311100Z 3112/0118 VRB06KT 9999 SCT030
Forecast period: 1200 UTC 31 July 2021 to 1800 UTC 01 August 2021
Forecast type: FROM: standard forecast or significant change
Winds: variable direction winds at 7 MPH (6 knots; 3.1 m/s)
Visibility: 6 or more miles (10+ km)
Ceiling: at least 12,000 feet AGL
Clouds: scattered clouds at 3000 feet AGL
Weather: no significant weather forecast for this period
Text: PROB40
Forecast period: 1500 to 2100 UTC 31 July 2021
Forecast type: TEMPORARY: The following changes expected for less than half the time period
Visibility: missing
Ceiling: unknown
Clouds: missing
Weather: TSRA  (rain associated with thunderstorm(s))
Text: TEMPO 3115/3121 TSRA
Forecast period: 2100 UTC 31 July 2021 to 0600 UTC 01 August 2021
Forecast type: TEMPORARY: The following changes expected for less than half the time period
Visibility: 2.49 miles (4.01 km)
Ceiling: unknown
Clouds: missing
Weather: TSRA  (rain associated with thunderstorm(s))